createdAt,value
2018-08-28T00:01:32.061Z,23.60
2018-08-28T00:04:00.452Z,23.70
2018-08-28T00:06:28.881Z,23.60
2018-08-28T00:08:57.396Z,23.70
2018-08-28T00:11:25.762Z,23.70
2018-08-28T00:13:54.215Z,23.60
2018-08-28T00:16:22.576Z,23.60
2018-08-28T00:18:51.156Z,23.60
2018-08-28T00:21:19.556Z,23.60
2018-08-28T00:23:47.937Z,23.60
2018-08-28T00:26:16.323Z,23.60
2018-08-28T00:28:45.305Z,23.60
2018-08-28T00:31:13.715Z,23.60
2018-08-28T00:33:42.095Z,23.60
2018-08-28T00:36:10.458Z,23.60
2018-08-28T00:38:39.315Z,23.50
2018-08-28T00:41:08.406Z,23.60
2018-08-28T00:43:37.017Z,23.60
2018-08-28T00:46:05.385Z,23.60
2018-08-28T00:48:33.748Z,23.60
2018-08-28T00:51:02.172Z,23.50
2018-08-28T00:53:30.531Z,23.50
2018-08-28T00:55:58.928Z,23.50
2018-08-28T00:58:27.283Z,23.50
2018-08-28T01:00:55.724Z,23.50
2018-08-28T01:03:24.376Z,23.50
2018-08-28T01:05:52.753Z,23.50
2018-08-28T01:08:21.105Z,23.50
2018-08-28T01:10:49.462Z,23.50
2018-08-28T01:13:17.968Z,23.50
2018-08-28T01:15:46.352Z,23.50
2018-08-28T01:18:14.764Z,23.50
2018-08-28T01:20:43.142Z,23.50
2018-08-28T01:23:11.628Z,23.50
2018-08-28T01:25:40.018Z,23.60
2018-08-28T01:28:08.360Z,23.50
2018-08-28T01:30:36.744Z,23.60
2018-08-28T01:33:06.321Z,23.60
2018-08-28T01:35:34.983Z,23.60
2018-08-28T01:38:04.095Z,23.60
2018-08-28T01:40:32.518Z,23.60
2018-08-28T01:43:01.269Z,23.50
2018-08-28T01:45:30.609Z,23.50
2018-08-28T01:47:59.914Z,23.50
2018-08-28T01:50:28.279Z,23.50
2018-08-28T01:52:56.676Z,23.50
2018-08-28T01:55:25.176Z,23.50
2018-08-28T01:57:53.585Z,23.50
2018-08-28T02:00:22.110Z,23.60
2018-08-28T02:02:50.498Z,23.60
2018-08-28T02:05:19.125Z,23.50
2018-08-28T02:07:47.499Z,23.50
2018-08-28T02:10:15.884Z,23.50
2018-08-28T02:12:44.896Z,23.50
2018-08-28T02:15:13.560Z,23.60
2018-08-28T02:17:41.921Z,23.60
2018-08-28T02:20:10.367Z,23.60
2018-08-28T02:22:38.776Z,23.50
2018-08-28T02:25:07.497Z,23.50
2018-08-28T02:27:36.072Z,23.50
2018-08-28T02:30:04.700Z,23.50
2018-08-28T02:32:33.061Z,23.50
2018-08-28T02:35:01.464Z,23.50
2018-08-28T02:37:29.976Z,23.50
2018-08-28T02:39:58.448Z,23.50
2018-08-28T02:42:26.909Z,23.50
2018-08-28T02:44:55.630Z,23.50
2018-08-28T02:47:24.691Z,23.50
2018-08-28T02:49:53.101Z,23.50
2018-08-28T02:52:21.627Z,23.50
2018-08-28T02:54:50.111Z,23.50
2018-08-28T02:57:18.473Z,23.50
2018-08-28T02:59:47.052Z,23.50
2018-08-28T03:02:15.537Z,23.40
2018-08-28T03:04:44.060Z,23.40
2018-08-28T03:07:12.440Z,23.50
2018-08-28T03:09:41.151Z,23.40
2018-08-28T03:12:09.632Z,23.40
2018-08-28T03:14:38.133Z,23.40
2018-08-28T03:17:06.858Z,23.50
2018-08-28T03:19:35.226Z,23.50
2018-08-28T03:22:03.582Z,23.50
2018-08-28T03:24:31.961Z,23.40
2018-08-28T03:27:00.333Z,23.40
2018-08-28T03:29:29.097Z,23.50
2018-08-28T03:31:57.462Z,23.50
2018-08-28T03:34:25.944Z,23.40
2018-08-28T03:36:54.785Z,23.40
2018-08-28T03:39:23.141Z,23.50
2018-08-28T03:41:51.493Z,23.50
2018-08-28T03:44:19.917Z,23.40
2018-08-28T03:46:48.292Z,23.40
2018-08-28T03:49:16.780Z,23.40
2018-08-28T03:51:45.509Z,23.40
2018-08-28T03:54:13.884Z,23.50
2018-08-28T03:56:42.248Z,23.50
2018-08-28T03:59:10.629Z,23.50
2018-08-28T04:01:38.988Z,23.50
2018-08-28T04:04:07.367Z,23.50
2018-08-28T04:06:35.765Z,23.50
2018-08-28T04:09:05.080Z,23.50
2018-08-28T04:11:33.629Z,23.50
2018-08-28T04:14:02.000Z,23.50
2018-08-28T04:16:30.417Z,23.40
2018-08-28T04:18:59.661Z,23.40
2018-08-28T04:21:28.193Z,23.40
2018-08-28T04:23:56.547Z,23.40
2018-08-28T04:26:25.232Z,23.40
2018-08-28T04:28:53.608Z,23.40
2018-08-28T04:31:21.988Z,23.40
2018-08-28T04:33:50.323Z,23.40
2018-08-28T04:36:18.701Z,23.30
2018-08-28T04:38:47.667Z,23.30
2018-08-28T04:41:16.069Z,23.30
2018-08-28T04:43:44.441Z,23.40
2018-08-28T04:46:13.429Z,23.30
2018-08-28T04:48:41.801Z,23.40
2018-08-28T04:51:10.163Z,23.30
2018-08-28T04:53:38.564Z,23.30
2018-08-28T04:56:07.078Z,23.30
2018-08-28T04:58:35.464Z,23.30
2018-08-28T05:01:03.815Z,23.40
2018-08-28T05:03:32.172Z,23.40
2018-08-28T05:06:00.545Z,23.40
2018-08-28T05:08:28.892Z,23.40
2018-08-28T05:10:57.393Z,23.40
2018-08-28T05:13:25.956Z,23.40
2018-08-28T05:15:54.402Z,23.40
2018-08-28T05:18:23.232Z,23.40
2018-08-28T05:20:51.580Z,23.40
2018-08-28T05:23:19.973Z,23.40
2018-08-28T05:25:49.272Z,23.40
2018-08-28T05:28:17.673Z,23.40
2018-08-28T05:30:46.087Z,23.40
2018-08-28T05:33:14.469Z,23.40
2018-08-28T05:35:42.867Z,23.40
2018-08-28T05:38:11.239Z,23.40
2018-08-28T05:40:39.623Z,23.40
2018-08-28T05:43:08.487Z,23.40
2018-08-28T05:45:36.852Z,23.40
2018-08-28T05:48:05.342Z,23.50
2018-08-28T05:50:34.292Z,23.50
2018-08-28T05:53:03.313Z,23.40
2018-08-28T05:55:31.758Z,23.40
2018-08-28T05:58:00.266Z,23.40
2018-08-28T06:00:29.251Z,23.40
2018-08-28T06:02:57.747Z,23.40
2018-08-28T06:05:26.105Z,23.40
2018-08-28T06:07:54.476Z,23.40
2018-08-28T06:10:23.456Z,23.40
2018-08-28T06:12:51.933Z,23.40
2018-08-28T06:15:20.292Z,23.40
2018-08-28T06:17:48.681Z,23.40
2018-08-28T06:20:17.243Z,23.40
2018-08-28T06:22:45.599Z,23.40
2018-08-28T06:25:13.965Z,23.40
2018-08-28T06:27:42.542Z,23.40
2018-08-28T06:30:10.915Z,23.40
2018-08-28T06:32:40.312Z,23.50
2018-08-28T06:35:09.501Z,23.50
2018-08-28T06:37:38.020Z,23.60
2018-08-28T06:40:06.672Z,23.60
2018-08-28T06:42:36.279Z,23.60
2018-08-28T06:45:04.714Z,23.60
2018-08-28T06:47:33.068Z,23.60
2018-08-28T06:50:01.466Z,23.70
2018-08-28T06:52:29.857Z,23.70
2018-08-28T06:54:58.351Z,23.70
2018-08-28T06:57:26.768Z,23.70
2018-08-28T06:59:55.516Z,23.70
2018-08-28T07:02:24.316Z,23.70
2018-08-28T07:04:52.835Z,23.70
2018-08-28T07:07:21.258Z,23.70
2018-08-28T07:09:50.260Z,23.80
2018-08-28T07:12:20.017Z,23.80
2018-08-28T07:14:49.038Z,23.80
2018-08-28T07:17:18.575Z,23.80
2018-08-28T07:19:48.218Z,23.80
2018-08-28T07:22:17.274Z,23.80
2018-08-28T07:24:45.650Z,23.80
2018-08-28T07:27:14.029Z,23.80
2018-08-28T07:29:42.613Z,23.80
2018-08-28T07:32:11.005Z,23.80
2018-08-28T07:34:39.396Z,23.80
2018-08-28T07:37:07.796Z,23.80
2018-08-28T07:39:36.276Z,23.80
2018-08-28T07:42:04.859Z,23.80
2018-08-28T07:44:34.000Z,23.80
2018-08-28T07:47:02.530Z,23.80
2018-08-28T07:49:30.950Z,23.80
2018-08-28T07:51:59.564Z,23.80
2018-08-28T07:54:28.039Z,23.80
2018-08-28T07:56:56.429Z,23.80
2018-08-28T07:59:24.922Z,23.80
2018-08-28T08:01:53.501Z,23.70
2018-08-28T08:04:21.912Z,23.80
2018-08-28T08:06:50.273Z,23.80
2018-08-28T08:09:18.868Z,23.80
2018-08-28T08:11:47.478Z,23.80
2018-08-28T08:14:15.892Z,23.80
2018-08-28T08:16:44.668Z,23.80
2018-08-28T08:19:13.652Z,23.80
2018-08-28T08:21:42.055Z,23.80
2018-08-28T08:24:10.448Z,23.80
2018-08-28T08:26:38.860Z,23.80
2018-08-28T08:29:07.835Z,23.80
2018-08-28T08:31:36.227Z,23.80
2018-08-28T08:34:04.608Z,23.80
2018-08-28T08:36:33.107Z,23.80
2018-08-28T08:39:01.728Z,23.70
2018-08-28T08:41:30.888Z,23.80
2018-08-28T08:44:00.138Z,23.80
2018-08-28T08:46:28.748Z,23.80
2018-08-28T08:48:57.453Z,23.90
2018-08-28T08:51:26.081Z,23.90
2018-08-28T08:53:54.487Z,23.80
2018-08-28T08:56:22.911Z,23.90
2018-08-28T08:58:51.923Z,23.90
2018-08-28T09:01:20.607Z,23.90
2018-08-28T09:03:49.140Z,23.90
2018-08-28T09:06:17.611Z,24.00
2018-08-28T09:08:46.024Z,24.00
2018-08-28T09:11:14.452Z,24.00
2018-08-28T09:13:42.892Z,24.00
2018-08-28T09:16:11.274Z,24.10
2018-08-28T09:18:39.661Z,24.00
2018-08-28T09:21:08.063Z,24.10
2018-08-28T09:23:36.628Z,24.10
2018-08-28T09:26:05.374Z,24.10
2018-08-28T09:28:34.436Z,24.10
2018-08-28T09:31:02.978Z,24.10
2018-08-28T09:33:31.368Z,24.10
2018-08-28T09:35:59.825Z,24.10
2018-08-28T09:38:28.389Z,24.20
2018-08-28T09:40:56.684Z,24.20
2018-08-28T09:43:25.752Z,24.20
2018-08-28T09:45:54.124Z,24.20
2018-08-28T09:48:23.946Z,24.20
2018-08-28T09:50:52.362Z,24.20
2018-08-28T09:53:20.985Z,24.20
2018-08-28T09:55:49.456Z,24.20
2018-08-28T09:58:18.008Z,24.20
2018-08-28T10:00:51.765Z,24.20
2018-08-28T10:03:20.344Z,24.20
2018-08-28T10:05:49.309Z,24.30
2018-08-28T10:08:17.832Z,24.30
2018-08-28T10:10:46.334Z,24.30
2018-08-28T10:13:14.716Z,24.30
2018-08-28T10:15:43.213Z,24.20
2018-08-28T10:18:11.589Z,24.30
2018-08-28T10:20:40.089Z,24.30
2018-08-28T10:23:08.718Z,24.30
2018-08-28T10:25:37.189Z,24.30
2018-08-28T10:28:05.765Z,24.30
2018-08-28T10:30:34.212Z,24.30
2018-08-28T10:33:02.808Z,24.30
2018-08-28T10:35:32.009Z,24.30
2018-08-28T10:38:00.772Z,24.30
2018-08-28T10:40:29.216Z,24.30
2018-08-28T10:42:57.948Z,24.30
2018-08-28T10:45:26.460Z,24.30
2018-08-28T10:47:54.868Z,24.30
2018-08-28T10:50:23.341Z,24.30
2018-08-28T10:52:51.789Z,24.30
2018-08-28T10:55:20.332Z,24.30
2018-08-28T10:57:48.719Z,24.40
2018-08-28T11:00:17.271Z,24.40
2018-08-28T11:02:45.819Z,24.40
2018-08-28T11:05:14.384Z,24.40
2018-08-28T11:07:42.883Z,24.40
2018-08-28T11:10:11.636Z,24.40
2018-08-28T11:12:40.468Z,24.40
2018-08-28T11:15:09.481Z,24.40
2018-08-28T11:17:37.884Z,24.40
2018-08-28T11:20:06.263Z,24.40
2018-08-28T11:22:35.197Z,24.50
2018-08-28T11:25:04.368Z,24.50
2018-08-28T11:27:32.822Z,24.50
2018-08-28T11:30:02.163Z,24.50
2018-08-28T11:32:30.818Z,24.50
2018-08-28T11:34:59.227Z,24.50
2018-08-28T11:37:27.604Z,24.50
2018-08-28T11:39:55.989Z,24.60
2018-08-28T11:42:24.717Z,24.60
2018-08-28T11:44:53.500Z,24.50
2018-08-28T11:47:21.894Z,24.60
2018-08-28T11:49:50.400Z,24.50
2018-08-28T11:52:18.888Z,24.60
2018-08-28T11:54:47.343Z,24.50
2018-08-28T11:57:16.268Z,24.60
2018-08-28T11:59:45.541Z,24.60
2018-08-28T12:02:14.176Z,24.60
2018-08-28T12:04:42.693Z,24.60
2018-08-28T12:07:11.109Z,24.60
2018-08-28T12:09:39.464Z,24.60
2018-08-28T12:12:08.080Z,24.60
2018-08-28T12:14:37.322Z,24.60
2018-08-28T12:17:05.743Z,24.60
2018-08-28T12:19:34.173Z,24.60
2018-08-28T12:22:02.646Z,24.60
2018-08-28T12:24:31.657Z,24.70
2018-08-28T12:27:00.290Z,24.70
2018-08-28T12:29:33.356Z,24.70
2018-08-28T12:32:02.087Z,24.70
2018-08-28T12:34:30.473Z,24.70
2018-08-28T12:36:58.971Z,24.70
2018-08-28T12:39:27.588Z,24.70
2018-08-28T12:41:56.129Z,24.70
2018-08-28T12:44:24.581Z,24.70
2018-08-28T12:46:53.120Z,24.70
2018-08-28T12:49:21.575Z,24.70
2018-08-28T12:51:50.657Z,24.70
2018-08-28T12:54:19.760Z,24.80
2018-08-28T12:56:48.481Z,24.80
2018-08-28T12:59:17.062Z,24.80
2018-08-28T13:01:45.525Z,24.80
2018-08-28T13:04:14.044Z,24.80
2018-08-28T13:06:42.791Z,24.80
2018-08-28T13:09:11.410Z,24.80
2018-08-28T13:11:39.911Z,24.80
2018-08-28T13:14:10.080Z,24.90
2018-08-28T13:16:38.651Z,24.90
2018-08-28T13:19:07.971Z,24.90
2018-08-28T13:21:36.333Z,24.90
2018-08-28T13:24:04.986Z,24.90
2018-08-28T13:26:33.359Z,24.90
2018-08-28T13:29:02.007Z,24.90
2018-08-28T13:31:30.589Z,25.00
2018-08-28T13:33:59.484Z,24.90
2018-08-28T13:36:28.354Z,25.00
2018-08-28T13:38:56.829Z,25.00
2018-08-28T13:41:26.603Z,25.00
2018-08-28T13:43:55.295Z,25.00
2018-08-28T13:46:24.275Z,25.00
2018-08-28T13:48:52.756Z,24.90
2018-08-28T13:51:21.348Z,25.00
2018-08-28T13:53:50.131Z,25.00
2018-08-28T13:56:18.849Z,25.00
2018-08-28T13:58:47.765Z,25.00
2018-08-28T14:01:16.873Z,25.00
2018-08-28T14:03:45.589Z,25.00
2018-08-28T14:06:14.010Z,24.90
2018-08-28T14:08:42.896Z,25.00
2018-08-28T14:11:11.379Z,25.00
2018-08-28T14:13:40.331Z,25.00
2018-08-28T14:16:09.484Z,25.00
2018-08-28T14:18:38.661Z,25.00
2018-08-28T14:21:08.066Z,25.00
2018-08-28T14:23:37.127Z,25.00
2018-08-28T14:26:05.639Z,25.00
2018-08-28T14:28:34.064Z,25.00
2018-08-28T14:31:03.717Z,25.00
2018-08-28T14:33:32.183Z,25.00
2018-08-28T14:36:00.532Z,25.00
2018-08-28T14:38:30.892Z,25.00
2018-08-28T14:40:59.884Z,25.00
2018-08-28T14:43:28.252Z,25.00
2018-08-28T14:45:56.623Z,24.90
2018-08-28T14:48:25.108Z,25.00
2018-08-28T14:50:53.892Z,25.00
2018-08-28T14:53:23.624Z,25.00
2018-08-28T14:55:51.992Z,25.00
2018-08-28T14:58:21.099Z,25.00
2018-08-28T15:00:49.777Z,25.00
2018-08-28T15:03:18.383Z,25.00
2018-08-28T15:05:47.619Z,25.00
2018-08-28T15:08:16.723Z,25.00
2018-08-28T15:10:45.863Z,25.00
2018-08-28T15:13:14.254Z,25.00
2018-08-28T15:15:42.994Z,25.00
2018-08-28T15:18:11.770Z,25.00
2018-08-28T15:20:41.148Z,25.10
2018-08-28T15:23:11.272Z,25.00
2018-08-28T15:25:40.553Z,25.00
2018-08-28T15:28:09.286Z,25.10
2018-08-28T15:30:37.665Z,25.10
2018-08-28T15:33:07.783Z,25.10
2018-08-28T15:35:36.932Z,25.10
2018-08-28T15:38:05.315Z,25.10
2018-08-28T15:40:33.815Z,25.10
2018-08-28T15:43:02.638Z,25.10
2018-08-28T15:45:35.693Z,25.10
2018-08-28T15:48:04.328Z,25.10
2018-08-28T15:50:33.219Z,25.10
2018-08-28T15:53:02.215Z,25.10
2018-08-28T15:55:30.823Z,25.10
2018-08-28T15:58:00.211Z,25.10
2018-08-28T16:00:28.947Z,25.10
2018-08-28T16:02:57.636Z,25.10
2018-08-28T16:05:26.195Z,25.10
2018-08-28T16:07:54.673Z,25.10
2018-08-28T16:10:23.156Z,25.10
2018-08-28T16:12:51.896Z,25.10
2018-08-28T16:15:20.849Z,25.10
2018-08-28T16:17:49.324Z,25.10
2018-08-28T16:20:17.960Z,25.10
2018-08-28T16:22:51.364Z,25.10
2018-08-28T16:25:19.821Z,25.10
2018-08-28T16:27:48.709Z,25.10
2018-08-28T16:30:17.361Z,25.10
2018-08-28T16:32:45.952Z,25.10
2018-08-28T16:35:14.487Z,25.10
2018-08-28T16:37:42.996Z,25.10
2018-08-28T16:40:12.021Z,25.10
2018-08-28T16:42:43.097Z,25.10
2018-08-28T16:45:11.604Z,24.90
2018-08-28T16:47:40.913Z,25.10
2018-08-28T16:50:09.719Z,25.10
2018-08-28T16:52:38.287Z,25.10
2018-08-28T16:55:06.925Z,25.00
2018-08-28T16:57:35.585Z,25.10
2018-08-28T17:00:04.079Z,25.00
2018-08-28T17:02:32.889Z,25.00
2018-08-28T17:05:01.547Z,25.00
2018-08-28T17:07:30.258Z,25.00
2018-08-28T17:09:58.704Z,25.10
2018-08-28T17:12:27.502Z,25.00
2018-08-28T17:14:56.327Z,25.00
2018-08-28T17:17:24.964Z,25.10
2018-08-28T17:19:53.837Z,25.10
2018-08-28T17:22:22.295Z,25.10
2018-08-28T17:24:50.753Z,25.10
2018-08-28T17:27:19.271Z,25.10
2018-08-28T17:29:48.283Z,25.10
2018-08-28T17:32:17.073Z,25.10
2018-08-28T17:34:45.527Z,25.10
2018-08-28T17:37:14.067Z,25.10
2018-08-28T17:39:42.763Z,25.70
2018-08-28T17:42:11.658Z,25.10
2018-08-28T17:44:40.104Z,25.10
2018-08-28T17:47:08.497Z,25.10
2018-08-28T17:49:36.993Z,25.10
2018-08-28T17:52:05.565Z,25.10
2018-08-28T17:54:34.414Z,25.10
2018-08-28T17:57:02.943Z,25.10
2018-08-28T17:59:31.395Z,25.10
2018-08-28T18:01:59.963Z,25.10
2018-08-28T18:04:28.660Z,25.10
2018-08-28T18:06:57.173Z,25.10
2018-08-28T18:09:25.655Z,25.00
2018-08-28T18:11:54.040Z,25.10
2018-08-28T18:14:22.476Z,25.10
2018-08-28T18:16:51.962Z,25.00
2018-08-28T18:19:20.612Z,25.00
2018-08-28T18:21:49.407Z,25.00
2018-08-28T18:24:18.837Z,25.00
2018-08-28T18:26:47.474Z,25.00
2018-08-28T18:29:17.384Z,25.00
2018-08-28T18:31:46.167Z,25.00
2018-08-28T18:34:14.980Z,25.00
2018-08-28T18:36:44.014Z,25.00
2018-08-28T18:39:13.488Z,25.00
2018-08-28T18:41:41.948Z,24.90
2018-08-28T18:44:11.493Z,25.00
2018-08-28T18:46:40.352Z,25.00
2018-08-28T18:49:10.150Z,25.10
2018-08-28T18:51:39.764Z,25.20
2018-08-28T18:54:09.265Z,25.30
2018-08-28T18:56:38.783Z,25.30
2018-08-28T18:59:08.808Z,25.30
2018-08-28T19:01:39.771Z,25.40
2018-08-28T19:04:10.245Z,25.40
2018-08-28T19:06:39.069Z,25.40
2018-08-28T19:09:08.729Z,25.40
2018-08-28T19:11:38.107Z,25.50
2018-08-28T19:14:07.596Z,25.50
2018-08-28T19:16:37.107Z,25.50
2018-08-28T19:19:06.662Z,25.50
2018-08-28T19:21:39.452Z,25.50
2018-08-28T19:24:08.683Z,25.40
2018-08-28T19:26:37.152Z,25.40
2018-08-28T19:29:07.980Z,25.40
2018-08-28T19:31:41.996Z,25.40
2018-08-28T19:34:10.344Z,25.40
2018-08-28T19:36:38.813Z,25.40
2018-08-28T19:39:07.336Z,25.40
2018-08-28T19:41:35.916Z,25.30
2018-08-28T19:44:04.800Z,25.30
2018-08-28T19:46:40.285Z,25.30
2018-08-28T19:49:09.517Z,25.30
2018-08-28T19:51:44.024Z,25.30
2018-08-28T19:54:13.349Z,25.30
2018-08-28T19:56:42.419Z,25.30
2018-08-28T19:59:11.261Z,25.20
2018-08-28T20:01:40.193Z,25.20
2018-08-28T20:04:09.243Z,25.20
2018-08-28T20:06:38.549Z,25.10
2018-08-28T20:09:07.227Z,25.20
2018-08-28T20:11:35.899Z,25.10
2018-08-28T20:14:04.488Z,25.10
2018-08-28T20:16:32.949Z,25.10
2018-08-28T20:19:01.644Z,25.10
2018-08-28T20:21:30.048Z,25.10
2018-08-28T20:23:58.625Z,25.10
2018-08-28T20:26:27.053Z,25.00
2018-08-28T20:28:55.473Z,25.00
2018-08-28T20:31:24.961Z,25.00
2018-08-28T20:33:54.184Z,25.00
2018-08-28T20:36:23.285Z,25.00
2018-08-28T20:38:51.687Z,25.00
2018-08-28T20:41:20.285Z,25.00
2018-08-28T20:43:48.808Z,25.00
2018-08-28T20:46:17.438Z,25.00
2018-08-28T20:48:46.017Z,24.90
2018-08-28T20:51:14.617Z,24.90
2018-08-28T20:53:43.783Z,24.90
2018-08-28T20:56:12.438Z,24.90
2018-08-28T20:58:41.612Z,24.90
2018-08-28T21:01:10.252Z,24.90
2018-08-28T21:03:39.861Z,24.90
2018-08-28T21:06:08.619Z,24.80
2018-08-28T21:08:37.277Z,24.80
2018-08-28T21:11:06.062Z,24.80
2018-08-28T21:13:37.373Z,24.80
2018-08-28T21:16:06.110Z,24.80
2018-08-28T21:18:34.737Z,24.80
2018-08-28T21:21:03.211Z,24.80
2018-08-28T21:23:32.439Z,24.80
2018-08-28T21:26:00.917Z,24.80
2018-08-28T21:28:29.410Z,24.80
2018-08-28T21:30:57.869Z,24.80
2018-08-28T21:33:26.418Z,24.80
2018-08-28T21:35:55.056Z,24.80
2018-08-28T21:38:30.049Z,24.70
2018-08-28T21:40:59.264Z,24.80
2018-08-28T21:43:27.699Z,24.70
2018-08-28T21:45:56.422Z,24.70
2018-08-28T21:48:24.928Z,24.70
2018-08-28T21:50:53.370Z,24.70
2018-08-28T21:53:21.948Z,24.70
2018-08-28T21:55:50.375Z,24.70
2018-08-28T21:58:18.805Z,24.70
2018-08-28T22:00:51.848Z,24.70
2018-08-28T22:03:20.321Z,24.70
2018-08-28T22:05:49.092Z,24.70
2018-08-28T22:08:17.821Z,24.60
2018-08-28T22:10:46.546Z,24.60
2018-08-28T22:13:15.327Z,24.60
2018-08-28T22:15:44.054Z,24.60
2018-08-28T22:18:12.591Z,24.60
2018-08-28T22:20:45.365Z,24.60
2018-08-28T22:23:13.917Z,24.50
2018-08-28T22:25:42.376Z,24.50
2018-08-28T22:28:10.953Z,24.50
2018-08-28T22:30:39.463Z,24.50
2018-08-28T22:33:07.912Z,24.50
2018-08-28T22:35:36.327Z,24.50
2018-08-28T22:38:05.076Z,24.50
2018-08-28T22:40:33.596Z,24.50
2018-08-28T22:43:02.564Z,24.50
2018-08-28T22:45:31.282Z,24.40
2018-08-28T22:48:00.044Z,24.40
2018-08-28T22:50:28.494Z,24.40
2018-08-28T22:52:57.295Z,24.40
2018-08-28T22:55:25.922Z,24.40
2018-08-28T22:57:54.555Z,24.40
2018-08-28T23:00:24.081Z,24.40
2018-08-28T23:02:54.292Z,24.40
2018-08-28T23:05:22.928Z,24.30
2018-08-28T23:07:51.884Z,24.30
2018-08-28T23:10:20.477Z,24.30
2018-08-28T23:12:49.262Z,24.30
2018-08-28T23:15:17.933Z,24.30
2018-08-28T23:17:46.596Z,24.30
2018-08-28T23:20:15.033Z,24.30
2018-08-28T23:22:43.717Z,24.30
2018-08-28T23:25:12.136Z,24.30
2018-08-28T23:27:41.688Z,24.30
2018-08-28T23:30:10.329Z,24.30
2018-08-28T23:32:38.743Z,24.30
2018-08-28T23:35:07.464Z,24.30
2018-08-28T23:37:35.872Z,24.30
2018-08-28T23:40:08.470Z,24.30
2018-08-28T23:42:37.023Z,24.30
2018-08-28T23:45:05.872Z,24.30
2018-08-28T23:47:34.337Z,24.20
2018-08-28T23:50:02.804Z,24.30
2018-08-28T23:52:31.345Z,24.20
2018-08-28T23:55:00.210Z,24.30
2018-08-28T23:57:28.882Z,24.20
2018-08-28T23:59:57.476Z,24.20
